Time;durP1;ratioP1;P1;durP2;ratioP2;P2;SDS_P1;SDS_P2;PMS_P1;PMS_P2;Temp;Humidity;BMP_temperature;BMP_pressure;BME280_temperature;BME280_humidity;BME280_pressure;Samples;Min_cycle;Max_cycle;Signal;HPM_P1;HPM_P2
2021/12/22 00:02:48;;;;;;;1.90;1.42;;;20.50;21.40;20.90;94313.00;;;;10311942;28;48345;-59
2021/12/22 00:07:49;;;;;;;1.70;1.40;;;20.50;21.50;20.90;94326.00;;;;10312412;28;47018;-60
2021/12/22 00:12:51;;;;;;;1.83;1.52;;;20.50;21.40;20.90;94340.00;;;;10296739;28;47416;-60
2021/12/22 00:17:52;;;;;;;2.60;1.60;;;20.50;21.40;20.90;94338.00;;;;10270825;28;45494;-59
2021/12/22 00:22:53;;;;;;;2.00;1.70;;;20.50;21.30;20.90;94328.00;;;;10254395;28;47733;-59
2021/12/22 00:27:56;;;;;;;1.95;1.60;;;20.50;21.50;20.90;94335.00;;;;10278374;28;45491;-60
2021/12/22 00:33:03;;;;;;;1.67;1.50;;;20.40;21.40;20.90;94330.00;;;;10311352;28;46905;-60
2021/12/22 00:38:09;;;;;;;2.00;1.40;;;20.40;21.40;20.90;94310.00;;;;10311437;28;45418;-60
2021/12/22 00:43:10;;;;;;;1.90;1.43;;;20.40;21.40;20.90;94325.00;;;;10311341;28;45249;-61
2021/12/22 00:48:11;;;;;;;1.95;1.40;;;20.40;21.40;20.80;94319.00;;;;10311051;28;45444;-59
2021/12/22 00:53:12;;;;;;;2.03;1.48;;;20.40;21.30;20.90;94327.00;;;;10312063;28;46415;-60
2021/12/22 00:58:12;;;;;;;2.50;1.63;;;20.40;21.40;20.90;94328.00;;;;10311237;28;46538;-60
2021/12/22 01:03:15;;;;;;;1.58;1.38;;;20.40;21.40;20.90;94334.00;;;;10317662;28;45333;-59
2021/12/22 01:08:16;;;;;;;1.77;1.38;;;20.40;21.40;20.90;94334.00;;;;10317482;28;46515;-60
2021/12/22 01:13:16;;;;;;;1.90;1.48;;;20.40;21.30;20.90;94330.00;;;;10298637;28;47114;-60
2021/12/22 01:18:28;;;;;;;1.92;1.50;;;20.40;21.40;20.90;94322.00;;;;10276367;28;46306;-60
2021/12/22 01:23:35;;;;;;;2.35;1.50;;;20.40;21.40;20.90;94336.00;;;;10278026;28;46356;-60
2021/12/22 01:28:41;;;;;;;1.95;1.45;;;20.40;21.40;20.80;94330.00;;;;10276626;28;45112;-60
2021/12/22 01:33:42;;;;;;;2.50;1.40;;;20.40;21.40;20.80;94341.00;;;;10277796;28;46136;-59
2021/12/22 01:38:43;;;;;;;1.35;1.25;;;20.40;21.40;20.80;94337.00;;;;10259675;28;47096;-60
2021/12/22 01:43:45;;;;;;;1.67;1.45;;;20.40;21.40;20.80;94336.00;;;;10276243;28;46279;-59
2021/12/22 01:49:10;;;;;;;1.98;1.55;;;20.40;21.40;20.80;94316.00;;;;10277401;28;45277;-60
2021/12/22 01:54:21;;;;;;;1.60;1.48;;;20.40;21.40;20.80;94327.00;;;;10276045;28;45647;-59
2021/12/22 01:59:22;;;;;;;2.80;1.73;;;20.30;21.40;20.80;94312.00;;;;10272081;28;48073;-61
2021/12/22 02:04:22;;;;;;;1.83;1.30;;;20.30;21.30;20.80;94316.00;;;;10271583;28;45495;-61
2021/12/22 02:14:43;;;;;;;2.03;1.73;;;20.30;21.40;20.80;94340.00;;;;10304925;28;45110;-60
2021/12/22 02:19:46;;;;;;;1.63;1.38;;;20.30;21.40;20.80;94333.00;;;;10314347;28;46430;-60
2021/12/22 02:24:56;;;;;;;2.47;1.65;;;20.30;21.50;20.80;94326.00;;;;10316086;28;46956;-60
2021/12/22 02:30:01;;;;;;;2.47;1.63;;;20.30;21.40;20.80;94323.00;;;;10314929;28;46041;-60
2021/12/22 02:35:05;;;;;;;1.92;1.42;;;20.30;21.50;20.80;94334.00;;;;10314765;28;45333;-60
2021/12/22 02:40:12;;;;;;;2.70;1.80;;;20.40;21.50;20.80;94345.00;;;;10314190;28;45199;-60
2021/12/22 02:45:19;;;;;;;3.22;1.75;;;20.30;21.50;20.80;94326.00;;;;10315929;28;46088;-60
2021/12/22 02:50:20;;;;;;;3.75;1.90;;;20.40;21.50;20.80;94331.00;;;;10314116;28;47351;-60
2021/12/22 02:55:28;;;;;;;3.55;2.38;;;20.40;21.40;20.80;94330.00;;;;10315535;28;45364;-60
2021/12/22 03:05:37;;;;;;;3.00;2.00;;;20.40;21.40;20.80;94337.00;;;;10314141;28;45103;-60
2021/12/22 03:10:37;;;;;;;3.38;2.22;;;20.30;21.40;20.80;94335.00;;;;10315031;28;46010;-59
2021/12/22 03:15:38;;;;;;;3.35;2.10;;;20.30;21.40;20.80;94326.00;;;;10276059;28;45396;-60
2021/12/22 03:20:39;;;;;;;3.20;2.10;;;20.40;21.50;20.80;94335.00;;;;10271437;28;46544;-60
2021/12/22 03:25:39;;;;;;;3.95;1.95;;;20.40;21.40;20.80;94339.00;;;;10273834;28;45725;-60
2021/12/22 03:30:40;;;;;;;2.60;1.70;;;20.40;21.40;20.70;94322.00;;;;10272736;28;45380;-60
2021/12/22 03:35:41;;;;;;;2.45;1.83;;;20.40;21.40;20.80;94341.00;;;;10272349;28;46150;-61
2021/12/22 03:40:42;;;;;;;2.92;2.03;;;20.30;21.40;20.80;94325.00;;;;10272473;28;45266;-60
2021/12/22 03:45:42;;;;;;;2.83;1.92;;;20.30;21.40;20.80;94319.00;;;;10273536;28;46390;-59
2021/12/22 03:50:43;;;;;;;2.63;1.80;;;20.30;21.40;20.80;94337.00;;;;10273365;28;45305;-60
2021/12/22 03:55:44;;;;;;;2.28;1.60;;;20.30;21.40;20.80;94328.00;;;;10271957;28;45612;-59
2021/12/22 04:00:46;;;;;;;2.63;1.92;;;20.30;21.40;20.80;94322.00;;;;10288000;28;48466;-60
2021/12/22 04:05:48;;;;;;;2.70;1.90;;;20.30;21.50;20.80;94307.00;;;;10271537;28;46070;-60
2021/12/22 04:10:50;;;;;;;3.00;1.98;;;20.40;21.50;20.80;94321.00;;;;10272508;28;45453;-59
2021/12/22 04:15:51;;;;;;;3.45;1.90;;;20.30;21.40;20.80;94312.00;;;;10310104;28;45598;-60
2021/12/22 04:20:51;;;;;;;2.67;1.80;;;20.30;21.40;20.80;94324.00;;;;10312398;28;46719;-60
2021/12/22 04:25:52;;;;;;;2.55;1.90;;;20.30;21.40;20.80;94333.00;;;;10311626;28;46038;-60
2021/12/22 04:30:53;;;;;;;2.60;1.77;;;20.20;21.40;20.70;94334.00;;;;10311251;28;45253;-60
2021/12/22 04:35:55;;;;;;;2.30;1.80;;;20.30;21.50;20.70;94333.00;;;;10317420;28;46300;-59
2021/12/22 04:40:56;;;;;;;2.95;1.90;;;20.30;21.50;20.70;94329.00;;;;10319647;28;45285;-60
2021/12/22 04:45:56;;;;;;;3.42;2.00;;;20.30;21.50;20.70;94345.00;;;;10317564;28;48150;-60
2021/12/22 04:50:57;;;;;;;2.30;1.83;;;20.30;21.40;20.70;94333.00;;;;10318239;28;46697;-59
2021/12/22 04:55:58;;;;;;;2.15;1.70;;;20.30;21.50;20.70;94329.00;;;;10317598;28;48270;-60
2021/12/22 05:00:59;;;;;;;2.63;1.85;;;20.30;21.40;20.70;94322.00;;;;10317463;28;47023;-60
2021/12/22 05:05:59;;;;;;;2.22;1.70;;;20.30;21.40;20.80;94326.00;;;;10317417;28;46993;-59
2021/12/22 05:11:00;;;;;;;2.63;1.70;;;20.30;21.40;20.80;94314.00;;;;10317537;28;45344;-60
2021/12/22 05:16:04;;;;;;;2.83;2.00;;;20.30;21.50;20.80;94343.00;;;;10277716;28;45632;-61
2021/12/22 05:21:04;;;;;;;3.00;2.22;;;20.40;21.60;20.90;94339.00;;;;10276124;28;45355;-61
2021/12/22 05:26:05;;;;;;;2.83;1.80;;;20.40;21.50;20.90;94332.00;;;;10259999;28;47143;-60
2021/12/22 05:31:06;;;;;;;2.45;1.90;;;20.40;21.50;20.90;94332.00;;;;10276159;28;45533;-60
2021/12/22 05:36:07;;;;;;;2.20;1.70;;;20.40;21.40;21.00;94333.00;;;;10275656;28;45283;-59
2021/12/22 05:41:07;;;;;;;2.25;1.83;;;20.50;21.50;21.00;94329.00;;;;10276111;28;46545;-60
2021/12/22 05:46:08;;;;;;;2.88;2.00;;;20.50;21.40;21.00;94318.00;;;;10275018;28;46535;-60
2021/12/22 05:51:09;;;;;;;2.22;1.80;;;20.50;21.40;21.00;94318.00;;;;10275652;28;46053;-60
2021/12/22 05:56:12;;;;;;;2.25;1.80;;;20.60;21.40;21.10;94347.00;;;;10291822;28;48344;-60
2021/12/22 06:01:13;;;;;;;3.15;2.05;;;20.60;21.40;21.10;94342.00;;;;10275323;28;46286;-59
2021/12/22 06:06:14;;;;;;;2.72;1.80;;;20.60;21.40;21.10;94351.00;;;;10275588;28;45368;-59
2021/12/22 06:11:15;;;;;;;2.45;1.80;;;20.60;21.40;21.10;94349.00;;;;10277512;28;45616;-60
2021/12/22 06:16:15;;;;;;;2.50;1.88;;;20.60;21.30;21.10;94329.00;;;;10315324;28;46581;-60
2021/12/22 06:21:16;;;;;;;3.08;2.10;;;20.60;21.30;21.10;94342.00;;;;10314594;28;45180;-60
2021/12/22 06:26:17;;;;;;;2.78;2.17;;;20.60;21.30;21.10;94343.00;;;;10314449;28;48195;-61
2021/12/22 06:31:18;;;;;;;2.75;1.95;;;20.70;21.20;21.20;94338.00;;;;10315171;28;47210;-60
2021/12/22 06:36:19;;;;;;;2.50;2.20;;;20.70;21.30;21.20;94338.00;;;;10313933;28;45137;-60
2021/12/22 06:41:19;;;;;;;2.70;2.13;;;20.70;21.30;21.20;94331.00;;;;10314556;28;46429;-60
2021/12/22 06:46:20;;;;;;;2.45;1.88;;;20.70;21.30;21.20;94347.00;;;;10314154;28;48062;-60
2021/12/22 06:51:21;;;;;;;3.65;2.20;;;20.70;21.20;21.20;94339.00;;;;10314248;28;46124;-60
2021/12/22 06:56:21;;;;;;;2.75;2.10;;;20.70;21.30;21.20;94337.00;;;;10315386;28;46725;-60
2021/12/22 07:01:23;;;;;;;3.58;2.15;;;20.80;21.20;21.20;94349.00;;;;10313916;28;46888;-62
2021/12/22 07:06:23;;;;;;;2.92;2.20;;;20.70;21.20;21.20;94348.00;;;;10313445;28;47543;-59
2021/12/22 07:11:24;;;;;;;3.78;2.55;;;20.70;21.30;21.20;94355.00;;;;10311793;28;45341;-60
2021/12/22 07:16:25;;;;;;;2.83;2.20;;;20.70;21.30;21.20;94373.00;;;;10273229;28;45298;-60
2021/12/22 07:21:26;;;;;;;2.45;2.13;;;20.80;21.30;21.20;94359.00;;;;10272477;28;45581;-60
2021/12/22 07:26:26;;;;;;;2.47;2.00;;;20.70;21.40;21.20;94369.00;;;;10273247;28;46488;-60
2021/12/22 07:31:27;;;;;;;3.88;2.20;;;20.80;21.40;21.20;94360.00;;;;10273815;28;45379;-61
2021/12/22 07:36:28;;;;;;;3.13;2.30;;;20.80;21.40;21.30;94371.00;;;;10288504;28;46979;-59
2021/12/22 07:41:30;;;;;;;3.35;2.17;;;20.80;21.40;21.30;94378.00;;;;10272343;28;46180;-59
2021/12/22 07:46:32;;;;;;;3.63;2.47;;;20.80;21.40;21.30;94382.00;;;;10261000;28;47051;-60
2021/12/22 07:51:32;;;;;;;4.85;2.20;;;20.80;21.40;21.30;94382.00;;;;10311972;28;45245;-61
2021/12/22 07:56:33;;;;;;;3.95;2.53;;;20.80;21.40;21.30;94381.00;;;;10312252;28;45380;-61
2021/12/22 08:01:34;;;;;;;2.72;2.28;;;20.80;21.40;21.20;94371.00;;;;10311279;28;47149;-61
2021/12/22 08:06:34;;;;;;;3.85;2.28;;;20.80;21.40;21.30;94391.00;;;;10308914;28;45224;-61
2021/12/22 08:11:35;;;;;;;4.25;2.42;;;20.80;21.40;21.30;94399.00;;;;10326718;28;46843;-61
2021/12/22 08:16:36;;;;;;;4.55;2.42;;;20.80;21.40;21.30;94401.00;;;;10311063;28;46302;-62
2021/12/22 08:21:37;;;;;;;6.93;2.42;;;20.80;21.40;21.20;94395.00;;;;10315269;28;46650;-63
2021/12/22 08:26:38;;;;;;;3.50;2.38;;;20.80;21.70;21.20;94406.00;;;;10309926;28;45368;-63
2021/12/22 08:31:39;;;;;;;3.00;2.25;;;20.80;21.90;21.30;94397.00;;;;10307303;28;45424;-61
2021/12/22 08:41:59;;;;;;;3.30;2.15;;;20.80;22.10;21.30;94386.00;;;;10311245;28;45319;-65
2021/12/22 08:47:00;;;;;;;6.65;3.83;;;20.80;22.20;21.10;94395.00;;;;10347593;28;46694;-63
2021/12/22 08:52:01;;;;;;;6.57;4.00;;;20.70;20.70;21.00;94407.00;;;;10351054;28;45776;-63
2021/12/22 08:57:03;;;;;;;6.53;4.15;;;20.60;20.60;20.90;94418.00;;;;10351256;28;46377;-63
2021/12/22 09:02:04;;;;;;;6.80;3.17;;;20.60;20.30;21.00;94413.00;;;;10351675;28;45311;-62
2021/12/22 09:07:05;;;;;;;4.93;3.20;;;20.60;20.90;21.10;94384.00;;;;10351356;28;45367;-64
2021/12/22 09:12:07;;;;;;;8.55;4.60;;;20.60;21.20;21.00;94417.00;;;;10341068;28;47839;-63
2021/12/22 09:17:08;;;;;;;5.30;3.72;;;20.60;20.40;20.90;94407.00;;;;10309727;28;45170;-62
2021/12/22 09:22:09;;;;;;;4.07;3.00;;;20.50;20.60;20.90;94420.00;;;;10330829;28;47220;-60
2021/12/22 09:27:10;;;;;;;6.03;2.78;;;20.50;21.10;21.00;94393.00;;;;10316974;28;46385;-60
2021/12/22 09:32:14;;;;;;;3.70;2.40;;;20.50;21.30;21.00;94411.00;;;;10332393;28;47850;-60
2021/12/22 09:37:17;;;;;;;3.65;2.25;;;20.60;21.50;21.00;94403.00;;;;10314699;28;46132;-60
2021/12/22 09:42:18;;;;;;;3.30;2.33;;;20.50;21.60;21.00;94403.00;;;;10316249;28;45401;-60
2021/12/22 09:47:27;;;;;;;3.60;2.13;;;20.60;21.60;21.00;94398.00;;;;10297979;28;47494;-63
2021/12/22 09:52:29;;;;;;;2.80;2.20;;;20.60;22.10;21.10;94390.00;;;;10300934;28;46231;-61
2021/12/22 09:57:30;;;;;;;4.35;2.20;;;20.60;22.00;21.10;94418.00;;;;10291127;28;45476;-61
2021/12/22 10:02:31;;;;;;;5.28;3.55;;;20.60;22.20;21.00;94419.00;;;;10294804;28;46165;-60
2021/12/22 10:07:37;;;;;;;5.15;3.40;;;20.60;21.20;20.90;94409.00;;;;10314966;28;45241;-62
2021/12/22 10:12:39;;;;;;;8.80;3.20;;;20.50;21.50;20.80;94408.00;;;;10315107;28;45397;-60
2021/12/22 10:17:45;;;;;;;4.43;3.10;;;20.50;21.30;20.90;94401.00;;;;10316466;28;46402;-59
2021/12/22 10:22:51;;;;;;;6.85;2.90;;;20.50;21.60;20.90;94401.00;;;;10315089;28;45242;-59
2021/12/22 10:28:15;;;;;;;6.43;2.38;;;20.50;21.70;20.90;94385.00;;;;10315942;28;45406;-62
2021/12/22 10:33:20;;;;;;;4.00;2.42;;;20.50;21.70;20.90;94392.00;;;;10313652;28;47008;-59
2021/12/22 10:38:25;;;;;;;5.47;2.47;;;20.50;21.80;20.90;94376.00;;;;10313817;28;45497;-61
2021/12/22 10:43:30;;;;;;;4.13;2.70;;;20.50;21.80;20.90;94363.00;;;;10314094;28;45243;-60
2021/12/22 10:53:58;;;;;;;3.63;2.38;;;20.50;21.80;20.90;94358.00;;;;10314236;28;45141;-59
2021/12/22 10:59:17;;;;;;;3.55;2.40;;;20.50;21.80;20.90;94353.00;;;;10312671;28;46347;-59
2021/12/22 11:04:23;;;;;;;3.55;2.13;;;20.50;21.90;21.00;94355.00;;;;10342043;28;45515;-61
2021/12/22 11:09:24;;;;;;;4.30;2.10;;;20.50;22.00;21.00;94347.00;;;;10369350;28;46424;-62
2021/12/22 11:14:36;;;;;;;3.05;2.25;;;20.50;22.20;21.10;94337.00;;;;10347783;28;47369;-62
2021/12/22 11:19:49;;;;;;;3.75;2.40;;;20.60;22.20;21.00;94343.00;;;;10352707;28;47299;-59
2021/12/22 11:24:55;;;;;;;4.00;2.10;;;20.60;22.30;21.20;94320.00;;;;10351978;28;46982;-59
2021/12/22 11:29:58;;;;;;;2.63;1.90;;;20.60;22.20;21.40;94329.00;;;;10351483;28;46788;-59
2021/12/22 11:35:06;;;;;;;2.28;1.60;;;20.90;22.20;21.50;94325.00;;;;10368864;28;46564;-60
2021/12/22 11:40:10;;;;;;;2.95;1.70;;;20.90;22.10;21.60;94300.00;;;;10369116;28;45427;-59
2021/12/22 11:45:19;;;;;;;2.65;1.27;;;21.10;22.20;21.60;94309.00;;;;10346248;28;45554;-61
2021/12/22 11:50:21;;;;;;;2.50;1.45;;;21.10;22.10;21.70;94320.00;;;;10311501;28;45456;-59
2021/12/22 11:55:38;;;;;;;1.88;1.33;;;21.20;22.20;21.70;94296.00;;;;10310074;28;45594;-61
2021/12/22 12:00:42;;;;;;;2.10;1.10;;;21.20;22.20;21.70;94287.00;;;;10309467;28;45301;-60
2021/12/22 12:06:00;;;;;;;2.75;2.00;;;21.20;22.20;21.40;94305.00;;;;10326556;28;45515;-60
2021/12/22 12:11:02;;;;;;;2.97;2.03;;;21.10;22.00;21.30;94288.00;;;;10310985;28;46326;-61
2021/12/22 12:21:52;;;;;;;2.88;2.10;;;20.80;22.10;21.10;94275.00;;;;10288528;28;45682;-60
2021/12/22 12:26:53;;;;;;;3.55;2.05;;;20.70;22.30;21.20;94280.00;;;;10271763;28;46516;-63
2021/12/22 12:31:53;;;;;;;2.95;1.58;;;20.70;22.30;21.20;94264.00;;;;10271019;28;45571;-60
2021/12/22 12:36:54;;;;;;;2.63;2.00;;;20.70;22.30;21.20;94266.00;;;;10269574;28;45436;-62
2021/12/22 12:42:01;;;;;;;2.90;1.83;;;20.70;22.30;21.20;94275.00;;;;10269550;28;45410;-63
2021/12/22 12:47:18;;;;;;;2.08;1.70;;;20.70;22.90;21.10;94271.00;;;;10269532;28;46861;-63
2021/12/22 12:52:23;;;;;;;3.00;1.90;;;20.70;22.30;21.20;94261.00;;;;10252725;28;47115;-63
2021/12/22 12:57:25;;;;;;;2.80;2.03;;;20.70;22.30;21.20;94242.00;;;;10289724;28;45572;-63
2021/12/22 13:02:30;;;;;;;2.65;1.80;;;20.70;22.30;21.10;94251.00;;;;10316172;28;46477;-62
2021/12/22 13:07:32;;;;;;;3.17;2.00;;;20.70;22.30;21.10;94250.00;;;;10289290;28;46949;-63
2021/12/22 13:17:50;;;;;;;2.58;1.80;;;20.70;22.30;21.10;94259.00;;;;10316480;28;45238;-64
2021/12/22 13:22:56;;;;;;;2.95;2.10;;;20.70;22.30;21.10;94257.00;;;;10316491;28;46221;-63
2021/12/22 13:28:23;;;;;;;2.72;1.80;;;20.60;22.20;21.10;94233.00;;;;10315845;28;45603;-64
2021/12/22 13:33:28;;;;;;;3.53;2.03;;;20.60;22.20;21.10;94251.00;;;;10315397;28;45408;-64
2021/12/22 13:38:35;;;;;;;3.13;2.00;;;20.60;22.30;21.10;94251.00;;;;10331953;28;47181;-64
2021/12/22 13:43:45;;;;;;;2.88;2.10;;;20.60;22.30;21.10;94252.00;;;;10317600;28;46165;-63
2021/12/22 13:49:14;;;;;;;4.40;2.30;;;20.60;22.30;21.10;94261.00;;;;10331435;28;46952;-64
2021/12/22 13:54:19;;;;;;;2.70;1.95;;;20.60;22.30;21.00;94262.00;;;;10314457;28;47040;-63
2021/12/22 13:59:25;;;;;;;3.60;2.13;;;20.60;22.40;21.10;94266.00;;;;10330445;28;47197;-63
2021/12/22 14:04:38;;;;;;;2.67;1.93;;;20.60;22.40;21.10;94265.00;;;;10324405;28;46265;-64
2021/12/22 14:09:48;;;;;;;2.88;1.95;;;20.60;22.40;21.10;94267.00;;;;10351669;28;47269;-64
2021/12/22 14:14:51;;;;;;;3.17;2.20;;;20.60;22.40;21.10;94252.00;;;;10323932;28;45271;-64
2021/12/22 14:19:52;;;;;;;3.72;1.92;;;20.60;22.50;21.10;94261.00;;;;10312917;28;47114;-64
2021/12/22 14:24:55;;;;;;;3.15;2.35;;;20.60;22.50;21.10;94274.00;;;;10315046;28;45481;-64
2021/12/22 14:29:58;;;;;;;3.85;2.35;;;20.60;22.50;21.10;94255.00;;;;10330102;28;47072;-64
2021/12/22 14:35:11;;;;;;;3.10;1.90;;;20.60;22.60;21.10;94266.00;;;;10313895;28;47427;-64
2021/12/22 14:40:24;;;;;;;4.03;2.58;;;20.60;22.60;21.00;94238.00;;;;10329633;28;47331;-63
2021/12/22 14:45:32;;;;;;;2.83;2.15;;;20.60;22.50;21.10;94251.00;;;;10311500;28;45764;-64
2021/12/22 14:50:35;;;;;;;3.72;2.13;;;20.60;22.40;21.10;94262.00;;;;10296240;28;48195;-64
2021/12/22 14:55:44;;;;;;;4.18;2.47;;;20.60;22.40;21.10;94262.00;;;;10313474;28;46967;-63
2021/12/22 15:00:48;;;;;;;3.30;2.20;;;20.60;22.50;21.10;94265.00;;;;10329472;28;47186;-64
2021/12/22 15:06:02;;;;;;;3.17;2.28;;;20.60;22.40;21.00;94257.00;;;;10292679;28;48228;-64
2021/12/22 15:11:03;;;;;;;3.55;2.03;;;20.60;22.40;21.10;94244.00;;;;10310941;28;45361;-63
2021/12/22 15:16:10;;;;;;;2.83;2.20;;;20.60;22.40;21.10;94256.00;;;;10312094;28;45392;-60
2021/12/22 15:21:13;;;;;;;4.25;2.70;;;20.60;22.50;21.10;94246.00;;;;10342695;28;45513;-60
2021/12/22 15:26:18;;;;;;;3.50;2.40;;;20.70;22.50;21.00;94241.00;;;;10353581;28;46403;-58
2021/12/22 15:31:19;;;;;;;3.13;2.40;;;20.60;22.60;21.00;94246.00;;;;10353533;28;45582;-61
2021/12/22 15:36:20;;;;;;;3.40;2.53;;;20.60;22.60;21.00;94245.00;;;;10354604;28;46440;-58
2021/12/22 15:41:21;;;;;;;3.53;2.40;;;20.60;22.50;21.00;94252.00;;;;10353227;28;45316;-60
2021/12/22 15:46:21;;;;;;;3.08;2.60;;;20.60;22.50;21.00;94249.00;;;;10354822;28;45196;-61
2021/12/22 15:51:23;;;;;;;3.80;2.60;;;20.60;22.60;21.00;94257.00;;;;10350777;28;45432;-56
2021/12/22 15:56:23;;;;;;;5.68;3.67;;;20.60;22.20;21.10;94248.00;;;;10349015;28;45594;-58
2021/12/22 16:01:24;;;;;;;6.43;4.50;;;20.60;21.00;20.90;94244.00;;;;10313530;28;47628;-58
2021/12/22 16:06:25;;;;;;;6.57;3.95;;;20.60;20.80;20.90;94263.00;;;;10324838;28;45506;-58
2021/12/22 16:11:25;;;;;;;6.18;3.80;;;20.60;20.80;20.90;94247.00;;;;10345187;28;45376;-58
2021/12/22 16:16:26;;;;;;;7.38;4.90;;;20.50;20.50;20.90;94251.00;;;;10309375;28;46415;-58
2021/12/22 16:21:27;;;;;;;6.32;4.72;;;20.50;20.50;20.90;94263.00;;;;10311321;28;46542;-60
2021/12/22 16:26:27;;;;;;;6.07;3.90;;;20.40;20.60;20.80;94240.00;;;;10310317;28;46257;-60
2021/12/22 16:31:28;;;;;;;6.10;4.07;;;20.40;21.10;20.90;94244.00;;;;10332519;28;47831;-60
2021/12/22 16:36:30;;;;;;;6.00;3.90;;;20.40;21.40;20.90;94246.00;;;;10314834;28;45329;-61
2021/12/22 16:41:31;;;;;;;5.38;3.88;;;20.50;21.90;21.00;94223.00;;;;10316537;28;46376;-62
2021/12/22 16:46:32;;;;;;;6.05;4.07;;;20.50;21.80;21.00;94239.00;;;;10329046;28;45194;-61
2021/12/22 16:51:32;;;;;;;5.90;4.07;;;20.50;21.70;21.00;94227.00;;;;10360197;28;45398;-60
2021/12/22 16:56:33;;;;;;;5.53;4.18;;;20.50;21.80;21.00;94240.00;;;;10357586;28;47182;-61
2021/12/22 17:01:34;;;;;;;4.72;3.75;;;20.60;21.90;21.10;94239.00;;;;10356957;28;45348;-62
2021/12/22 17:06:40;;;;;;;5.32;3.90;;;20.60;21.80;21.00;94225.00;;;;10324110;28;46544;-60
2021/12/22 17:11:41;;;;;;;5.22;3.67;;;20.60;21.80;21.00;94236.00;;;;10311867;28;46962;-59
2021/12/22 17:16:41;;;;;;;5.18;3.67;;;20.60;21.80;21.00;94233.00;;;;10316962;28;45412;-59
2021/12/22 17:21:42;;;;;;;5.50;3.80;;;20.60;21.80;21.00;94240.00;;;;10291506;28;46226;-60
2021/12/22 17:26:44;;;;;;;5.20;3.70;;;20.60;21.70;21.00;94242.00;;;;10277229;28;46376;-60
2021/12/22 17:31:44;;;;;;;4.78;3.58;;;20.60;21.70;21.00;94240.00;;;;10276429;28;45306;-59
2021/12/22 17:36:45;;;;;;;4.20;3.50;;;20.60;21.60;21.00;94228.00;;;;10272960;28;45427;-62
2021/12/22 17:41:46;;;;;;;5.57;3.50;;;20.60;21.60;21.00;94231.00;;;;10272101;28;45260;-60
2021/12/22 17:46:47;;;;;;;4.40;3.50;;;20.60;21.60;21.00;94234.00;;;;10256191;28;46902;-60
2021/12/22 17:51:48;;;;;;;4.93;3.70;;;20.60;21.50;21.00;94230.00;;;;10257965;28;47471;-59
2021/12/22 17:56:48;;;;;;;5.10;3.90;;;20.60;21.60;21.00;94226.00;;;;10306603;28;45343;-60
2021/12/22 18:01:49;;;;;;;5.60;4.00;;;20.60;21.50;21.00;94226.00;;;;10311503;28;46093;-60
2021/12/22 18:06:50;;;;;;;6.53;4.03;;;20.60;21.50;21.00;94234.00;;;;10310420;28;46864;-61
2021/12/22 18:11:51;;;;;;;5.45;4.10;;;20.60;21.40;21.00;94230.00;;;;10309343;28;45428;-60
2021/12/22 18:16:52;;;;;;;7.43;4.60;;;20.60;21.40;21.00;94216.00;;;;10274311;28;45423;-60
2021/12/22 18:21:53;;;;;;;6.07;4.30;;;20.50;21.30;21.00;94214.00;;;;10273638;28;45291;-60
2021/12/22 18:26:53;;;;;;;5.78;4.10;;;20.60;21.80;21.00;94211.00;;;;10300439;28;48338;-61
2021/12/22 18:31:54;;;;;;;5.65;4.15;;;20.60;21.40;21.00;94194.00;;;;10313800;28;48090;-61
2021/12/22 18:37:02;;;;;;;5.45;3.88;;;20.60;21.40;21.10;94204.00;;;;10314502;28;45578;-62
2021/12/22 18:42:03;;;;;;;4.78;3.78;;;20.60;21.40;21.10;94195.00;;;;10314411;28;45211;-62
2021/12/22 18:47:05;;;;;;;6.13;4.07;;;20.60;21.40;21.10;94205.00;;;;10314422;28;45994;-62
2021/12/22 18:52:06;;;;;;;5.22;4.05;;;20.60;21.60;21.10;94185.00;;;;10312741;28;46265;-62
2021/12/22 18:57:06;;;;;;;6.07;4.15;;;20.70;21.50;21.10;94192.00;;;;10314474;28;46346;-62
2021/12/22 19:02:07;;;;;;;4.72;3.38;;;20.70;21.60;21.10;94173.00;;;;10313508;28;45432;-61
2021/12/22 19:07:08;;;;;;;5.38;3.90;;;20.70;21.50;21.10;94203.00;;;;10315045;28;46540;-58
2021/12/22 19:12:09;;;;;;;6.30;4.05;;;20.70;21.70;21.10;94189.00;;;;10314439;28;46485;-60
2021/12/22 19:17:09;;;;;;;6.93;4.30;;;20.70;21.40;21.10;94193.00;;;;10328060;28;46793;-61
2021/12/22 19:22:10;;;;;;;6.90;4.43;;;20.60;21.40;21.10;94178.00;;;;10299433;28;48365;-60
2021/12/22 19:27:11;;;;;;;6.10;4.20;;;20.70;21.40;21.10;94169.00;;;;10274032;28;45354;-60
2021/12/22 19:32:12;;;;;;;5.93;4.03;;;20.60;21.30;21.00;94152.00;;;;10303902;28;45344;-60
2021/12/22 19:37:12;;;;;;;6.72;4.55;;;20.60;21.30;21.10;94146.00;;;;10311451;28;45318;-60
2021/12/22 19:42:14;;;;;;;5.68;4.22;;;20.60;21.30;21.10;94165.00;;;;10311448;28;46132;-60
2021/12/22 19:47:14;;;;;;;6.60;4.30;;;20.60;21.30;21.00;94157.00;;;;10311225;28;46410;-60
2021/12/22 19:52:15;;;;;;;6.95;4.45;;;20.60;21.40;21.00;94147.00;;;;10311675;28;46650;-60
2021/12/22 19:57:16;;;;;;;7.57;4.78;;;20.60;21.40;21.10;94161.00;;;;10312259;28;46109;-60
2021/12/22 20:02:16;;;;;;;5.65;4.35;;;20.60;21.40;21.00;94142.00;;;;10326427;28;47260;-60
2021/12/22 20:07:17;;;;;;;6.72;4.70;;;20.60;21.40;21.10;94155.00;;;;10311219;28;45163;-61
2021/12/22 20:12:18;;;;;;;6.28;4.40;;;20.60;21.40;21.10;94149.00;;;;10310942;28;45255;-61
2021/12/22 20:17:19;;;;;;;6.05;4.15;;;20.60;21.40;21.10;94144.00;;;;10311646;28;45190;-60
2021/12/22 20:22:20;;;;;;;6.35;4.00;;;20.60;21.40;21.10;94147.00;;;;10310200;28;46118;-61
2021/12/22 20:27:20;;;;;;;5.90;4.38;;;20.60;21.40;21.10;94147.00;;;;10311410;28;46490;-60
2021/12/22 20:32:21;;;;;;;5.82;4.10;;;20.60;21.40;21.10;94131.00;;;;10309800;28;47199;-59
2021/12/22 20:37:22;;;;;;;6.15;4.32;;;20.60;21.40;21.10;94141.00;;;;10309724;28;45253;-60
2021/12/22 20:42:23;;;;;;;6.45;4.22;;;20.60;21.40;21.10;94141.00;;;;10309525;28;47078;-61
2021/12/22 20:47:23;;;;;;;6.40;4.60;;;20.60;21.30;21.10;94131.00;;;;10310011;28;45646;-60
2021/12/22 20:52:24;;;;;;;7.82;5.10;;;20.60;21.20;21.10;94132.00;;;;10310972;28;45304;-61
2021/12/22 20:57:25;;;;;;;6.28;4.43;;;20.60;21.20;21.10;94139.00;;;;10310576;28;45237;-61
2021/12/22 21:02:28;;;;;;;6.53;4.43;;;20.60;21.20;21.10;94134.00;;;;10308748;28;47068;-60
2021/12/22 21:07:31;;;;;;;6.32;4.38;;;20.60;21.20;21.10;94132.00;;;;10308946;28;47868;-60
2021/12/22 21:12:36;;;;;;;8.13;4.90;;;20.60;21.20;21.10;94128.00;;;;10296159;28;45436;-61
2021/12/22 21:17:38;;;;;;;6.43;4.53;;;20.60;21.10;21.10;94114.00;;;;10273820;28;46220;-60
2021/12/22 21:22:40;;;;;;;5.95;4.32;;;20.60;21.00;21.00;94123.00;;;;10275399;28;45255;-60
2021/12/22 21:27:41;;;;;;;6.18;4.40;;;20.60;21.00;21.00;94134.00;;;;10278093;28;45506;-59
2021/12/22 21:32:43;;;;;;;7.40;4.90;;;20.60;20.90;20.90;94120.00;;;;10313168;28;45963;-60
2021/12/22 21:37:43;;;;;;;7.07;5.13;;;20.60;20.90;20.90;94130.00;;;;10315454;28;46961;-60
2021/12/22 21:42:44;;;;;;;7.65;5.18;;;20.50;20.80;20.90;94120.00;;;;10317175;28;46844;-60
2021/12/22 21:47:45;;;;;;;7.22;5.07;;;20.50;20.70;20.90;94114.00;;;;10315256;28;47062;-60
2021/12/22 21:52:45;;;;;;;7.03;4.93;;;20.50;20.70;20.80;94098.00;;;;10315435;28;47000;-59
2021/12/22 21:57:46;;;;;;;7.32;5.30;;;20.50;20.70;20.80;94106.00;;;;10316046;28;46580;-59
2021/12/22 22:02:47;;;;;;;7.53;4.85;;;20.40;20.70;20.80;94107.00;;;;10314878;28;47114;-61
2021/12/22 22:07:48;;;;;;;7.97;5.28;;;20.40;20.70;20.80;94124.00;;;;10314207;28;46861;-61
2021/12/22 22:12:50;;;;;;;7.45;5.25;;;20.40;20.60;20.80;94107.00;;;;10283541;28;47234;-61
2021/12/22 22:17:52;;;;;;;7.57;5.30;;;20.40;20.60;20.80;94123.00;;;;10273689;28;46610;-59
2021/12/22 22:22:52;;;;;;;7.63;5.10;;;20.40;20.60;20.80;94117.00;;;;10273547;28;46378;-60
2021/12/22 22:27:58;;;;;;;7.32;5.32;;;20.40;20.50;20.70;94134.00;;;;10263573;28;46955;-60
2021/12/22 22:32:58;;;;;;;7.10;5.10;;;20.30;20.50;20.70;94123.00;;;;10298133;28;47016;-61
2021/12/22 22:38:00;;;;;;;7.53;5.00;;;20.30;20.60;20.70;94120.00;;;;10314920;28;45256;-59
2021/12/22 22:43:00;;;;;;;6.78;4.80;;;20.30;20.50;20.70;94135.00;;;;10314128;28;47016;-59